createdAt,value
2023-04-15T00:01:19.838Z,99486.80
2023-04-15T00:03:48.374Z,99486.65
2023-04-15T00:06:16.344Z,99489.03
2023-04-15T00:08:43.823Z,99487.41
2023-04-15T00:11:12.553Z,99485.42
2023-04-15T00:13:40.050Z,99486.41
2023-04-15T00:16:09.082Z,99488.09
2023-04-15T00:18:38.463Z,99479.86
2023-04-15T00:21:06.181Z,99484.04
2023-04-15T00:23:33.642Z,99480.00
2023-04-15T00:26:01.620Z,99476.86
2023-04-15T00:28:29.532Z,99478.10
2023-04-15T00:30:57.539Z,99481.39
2023-04-15T00:33:25.686Z,99478.77
2023-04-15T00:35:53.622Z,99473.04
2023-04-15T00:38:21.216Z,99469.73
2023-04-15T00:40:48.759Z,99471.09
2023-04-15T00:43:16.357Z,99466.54
2023-04-15T00:45:43.832Z,99469.45
2023-04-15T00:48:12.516Z,99467.52
2023-04-15T00:50:40.002Z,99466.23
2023-04-15T00:53:07.554Z,99466.98
2023-04-15T00:55:36.273Z,99465.48
2023-04-15T00:58:03.853Z,99465.58
2023-04-15T01:00:31.584Z,99461.59
2023-04-15T01:02:59.182Z,99460.56
2023-04-15T01:05:28.142Z,99461.78
2023-04-15T01:07:58.364Z,99458.34
2023-04-15T01:10:25.886Z,99460.92
2023-04-15T01:12:53.586Z,99462.13
2023-04-15T01:15:21.856Z,99460.27
2023-04-15T01:17:49.998Z,99461.85
2023-04-15T01:20:17.808Z,99459.58
2023-04-15T01:22:45.310Z,99457.65
2023-04-15T01:25:31.646Z,99456.61
2023-04-15T01:27:59.482Z,99459.06
2023-04-15T01:30:27.154Z,99461.84
2023-04-15T01:32:55.001Z,99458.04
2023-04-15T01:35:23.929Z,99460.90
2023-04-15T01:37:51.615Z,99460.77
2023-04-15T01:40:19.201Z,99457.83
2023-04-15T01:42:47.548Z,99459.77
2023-04-15T01:45:15.386Z,99461.40
2023-04-15T01:47:43.592Z,99460.56
2023-04-15T01:50:11.382Z,99464.95
2023-04-15T01:52:38.895Z,99457.86
2023-04-15T01:55:08.507Z,99456.45
2023-04-15T01:57:37.181Z,99456.94
2023-04-15T02:00:07.590Z,99453.45
2023-04-15T02:02:36.217Z,99451.69
2023-04-15T02:05:05.608Z,99455.84
2023-04-15T02:07:33.239Z,99456.88
2023-04-15T02:10:01.288Z,99454.73
2023-04-15T02:12:28.999Z,99457.33
2023-04-15T02:14:56.684Z,99451.06
2023-04-15T02:17:24.208Z,99449.87
2023-04-15T02:19:52.155Z,99446.79
2023-04-15T02:22:19.818Z,99446.97
2023-04-15T02:24:47.457Z,99450.63
2023-04-15T02:27:18.473Z,99446.98
2023-04-15T02:29:46.618Z,99450.42
2023-04-15T02:32:14.222Z,99451.09
2023-04-15T02:34:42.673Z,99453.14
2023-04-15T02:37:21.235Z,99455.35
2023-04-15T02:40:10.360Z,99457.92
2023-04-15T02:42:39.980Z,99458.20
2023-04-15T02:45:08.102Z,99459.16
2023-04-15T02:47:36.131Z,99459.87
2023-04-15T02:50:04.522Z,99457.84
2023-04-15T02:52:32.581Z,99454.95
2023-04-15T02:55:02.688Z,99458.33
2023-04-15T02:57:30.258Z,99455.11
2023-04-15T02:59:57.730Z,99457.27
2023-04-15T03:02:25.566Z,99455.84
2023-04-15T03:04:54.826Z,99455.30
2023-04-15T03:07:22.305Z,99455.29
2023-04-15T03:09:49.921Z,99458.48
2023-04-15T03:12:18.599Z,99458.09
2023-04-15T03:14:46.614Z,99459.75
2023-04-15T03:17:14.129Z,99459.33
2023-04-15T03:19:43.914Z,99460.02
2023-04-15T03:22:11.464Z,99456.50
2023-04-15T03:24:39.107Z,99461.65
2023-04-15T03:27:07.993Z,99460.37
2023-04-15T03:29:35.603Z,99464.16
2023-04-15T03:32:03.277Z,99462.30
2023-04-15T03:34:30.854Z,99461.83
2023-04-15T03:36:58.403Z,99463.37
2023-04-15T03:39:26.050Z,99463.25
2023-04-15T03:41:53.508Z,99464.31
2023-04-15T03:44:21.314Z,99462.59
2023-04-15T03:46:49.185Z,99462.39
2023-04-15T03:49:17.254Z,99466.33
2023-04-15T03:51:45.509Z,99465.88
2023-04-15T03:54:15.201Z,99466.67
2023-04-15T03:56:42.742Z,99468.19
2023-04-15T03:59:11.318Z,99469.00
2023-04-15T04:01:38.787Z,99471.36
2023-04-15T04:04:06.629Z,99472.72
2023-04-15T04:06:37.497Z,99475.61
2023-04-15T04:09:05.051Z,99475.16
2023-04-15T04:11:33.237Z,99475.33
2023-04-15T04:14:01.863Z,99479.77
2023-04-15T04:16:29.427Z,99478.40
2023-04-15T04:18:58.331Z,99477.02
2023-04-15T04:21:26.737Z,99473.60
2023-04-15T04:23:58.198Z,99479.52
2023-04-15T04:26:26.411Z,99479.37
2023-04-15T04:28:53.903Z,99483.77
2023-04-15T04:31:21.861Z,99484.54
2023-04-15T04:33:49.354Z,99489.43
2023-04-15T04:36:16.937Z,99487.81
2023-04-15T04:38:44.538Z,99488.27
2023-04-15T04:41:12.316Z,99490.73
2023-04-15T04:43:39.804Z,99490.95
2023-04-15T04:46:07.829Z,99496.17
2023-04-15T04:48:35.750Z,99493.97
2023-04-15T04:51:04.076Z,99499.20
2023-04-15T04:53:31.860Z,99500.85
2023-04-15T04:55:59.467Z,99500.21
2023-04-15T04:58:27.587Z,99504.60
2023-04-15T05:00:56.792Z,99507.14
2023-04-15T05:03:24.637Z,99504.11
2023-04-15T05:05:52.316Z,99506.06
2023-04-15T05:08:19.803Z,99507.65
2023-04-15T05:10:47.306Z,99508.42
2023-04-15T05:13:14.817Z,99509.38
2023-04-15T05:15:43.440Z,99510.65
2023-04-15T05:18:11.122Z,99512.42
2023-04-15T05:20:39.145Z,99518.81
2023-04-15T05:23:06.912Z,99518.67
2023-04-15T05:25:35.131Z,99513.88
2023-04-15T05:28:02.643Z,99517.15
2023-04-15T05:30:30.535Z,99521.16
2023-04-15T05:32:58.162Z,99518.48
2023-04-15T05:35:27.225Z,99519.63
2023-04-15T05:37:54.906Z,99521.36
2023-04-15T05:40:22.976Z,99524.30
2023-04-15T05:42:51.077Z,99524.66
2023-04-15T05:45:18.768Z,99527.28
2023-04-15T05:47:46.824Z,99526.39
2023-04-15T05:50:14.318Z,99525.52
2023-04-15T05:52:41.838Z,99525.02
2023-04-15T05:55:09.806Z,99524.42
2023-04-15T05:57:37.611Z,99527.13
2023-04-15T06:00:05.892Z,99527.58
2023-04-15T06:02:33.583Z,99530.59
2023-04-15T06:05:01.472Z,99530.40
2023-04-15T06:07:29.171Z,99533.11
2023-04-15T06:09:56.798Z,99530.20
2023-04-15T06:12:24.304Z,99532.77
2023-04-15T06:14:51.739Z,99534.64
2023-04-15T06:17:20.328Z,99536.15
2023-04-15T06:19:47.870Z,99534.40
2023-04-15T06:22:15.778Z,99532.52
2023-04-15T06:24:43.486Z,99533.61
2023-04-15T06:27:10.961Z,99532.60
2023-04-15T06:29:38.580Z,99534.95
2023-04-15T06:32:07.164Z,99537.30
2023-04-15T06:34:34.682Z,99537.73
2023-04-15T06:37:03.383Z,99540.81
2023-04-15T06:39:37.662Z,99540.23
2023-04-15T06:42:05.208Z,99541.98
2023-04-15T06:44:33.897Z,99544.75
2023-04-15T06:47:02.094Z,99548.39
2023-04-15T06:49:29.761Z,99547.52
2023-04-15T06:51:57.587Z,99548.73
2023-04-15T06:54:26.534Z,99554.95
2023-04-15T06:56:54.101Z,99555.52
2023-04-15T06:59:21.671Z,99556.59
2023-04-15T07:01:49.274Z,99560.09
2023-04-15T07:04:16.979Z,99565.52
2023-04-15T07:06:45.039Z,99567.98
2023-04-15T07:09:12.639Z,99563.31
2023-04-15T07:11:40.265Z,99571.54
2023-04-15T07:14:08.348Z,99570.35
2023-04-15T07:16:36.000Z,99574.70
2023-04-15T07:19:04.223Z,99574.14
2023-04-15T07:21:32.342Z,99575.62
2023-04-15T07:23:59.905Z,99572.54
2023-04-15T07:26:27.457Z,99568.77
2023-04-15T07:28:55.534Z,99569.90
2023-04-15T07:31:23.143Z,99575.66
2023-04-15T07:33:51.130Z,99572.87
2023-04-15T07:36:18.752Z,99573.55
2023-04-15T07:38:46.257Z,99576.46
2023-04-15T07:41:14.285Z,99574.19
2023-04-15T07:43:41.900Z,99575.45
2023-04-15T07:46:09.471Z,99575.69
2023-04-15T07:48:37.650Z,99574.91
2023-04-15T07:51:06.272Z,99577.36
2023-04-15T07:53:33.936Z,99580.67
2023-04-15T07:56:01.591Z,99583.86
2023-04-15T07:58:29.272Z,99579.89
2023-04-15T08:00:57.025Z,99579.18
2023-04-15T08:03:26.157Z,99578.86
2023-04-15T08:05:54.482Z,99580.58
2023-04-15T08:08:22.472Z,99578.16
2023-04-15T08:10:52.672Z,99579.91
2023-04-15T08:13:21.020Z,99578.46
2023-04-15T08:16:14.573Z,99577.91
2023-04-15T08:18:43.622Z,99576.98
2023-04-15T08:21:11.849Z,99578.04
2023-04-15T08:23:39.859Z,99581.83
2023-04-15T08:26:09.385Z,99581.08
2023-04-15T08:28:39.909Z,99579.16
2023-04-15T08:31:09.295Z,99576.98
2023-04-15T08:33:37.049Z,99577.61
2023-04-15T08:36:05.955Z,99577.54
2023-04-15T08:38:34.043Z,99580.20
2023-04-15T08:41:07.483Z,99575.55
2023-04-15T08:43:38.676Z,99580.98
2023-04-15T08:46:06.936Z,99579.59
2023-04-15T08:48:38.567Z,99578.22
2023-04-15T08:51:07.024Z,99577.89
2023-04-15T08:53:35.566Z,99581.33
2023-04-15T08:56:10.254Z,99581.33
2023-04-15T08:58:38.450Z,99581.77
2023-04-15T09:01:06.331Z,99585.30
2023-04-15T09:03:35.654Z,99585.36
2023-04-15T09:06:06.232Z,99587.60
2023-04-15T09:08:36.897Z,99591.70
2023-04-15T09:11:04.558Z,99592.84
2023-04-15T09:13:32.082Z,99593.05
2023-04-15T09:16:04.367Z,99595.93
2023-04-15T09:18:34.517Z,99593.94
2023-04-15T09:21:19.552Z,99595.87
2023-04-15T09:24:04.093Z,99595.88
2023-04-15T09:26:36.681Z,99587.43
2023-04-15T09:29:11.928Z,99591.03
2023-04-15T09:31:40.675Z,99587.09
2023-04-15T09:34:08.705Z,99587.86
2023-04-15T09:36:54.142Z,99584.11
2023-04-15T09:39:21.912Z,99587.38
2023-04-15T09:42:06.975Z,99589.36
2023-04-15T09:44:34.577Z,99591.64
2023-04-15T09:47:02.186Z,99592.31
2023-04-15T09:49:30.165Z,99594.48
2023-04-15T09:52:06.044Z,99597.77
2023-04-15T09:54:36.281Z,99600.00
2023-04-15T09:57:08.962Z,99603.20
2023-04-15T09:59:36.668Z,99601.02
2023-04-15T10:02:06.773Z,99603.21
2023-04-15T10:04:38.395Z,99603.10
2023-04-15T10:07:07.554Z,99604.40
2023-04-15T10:09:39.379Z,99604.88
2023-04-15T10:12:07.407Z,99602.64
2023-04-15T10:14:38.764Z,99605.52
2023-04-15T10:17:08.238Z,99609.33
2023-04-15T10:19:37.996Z,99607.14
2023-04-15T10:22:07.356Z,99605.14
2023-04-15T10:24:35.316Z,99603.33
2023-04-15T10:27:07.021Z,99606.63
2023-04-15T10:29:34.710Z,99604.73
2023-04-15T10:32:03.502Z,99603.40
2023-04-15T10:34:32.405Z,99602.02
2023-04-15T10:37:04.458Z,99605.73
2023-04-15T10:39:40.059Z,99602.34
2023-04-15T10:42:08.524Z,99604.11
2023-04-15T10:44:38.773Z,99604.79
2023-04-15T10:47:15.436Z,99602.88
2023-04-15T10:49:45.853Z,99601.44
2023-04-15T10:52:16.724Z,99603.06
2023-04-15T10:54:44.917Z,99603.97
2023-04-15T10:57:34.692Z,99603.90
2023-04-15T11:00:17.287Z,99607.69
2023-04-15T11:02:48.096Z,99605.38
2023-04-15T11:05:17.728Z,99602.29
2023-04-15T11:07:51.383Z,99608.41
2023-04-15T11:10:20.790Z,99610.75
2023-04-15T11:12:57.726Z,99610.27
2023-04-15T11:15:32.122Z,99611.83
2023-04-15T11:18:19.928Z,99610.56
2023-04-15T11:20:53.973Z,99610.73
2023-04-15T11:23:38.539Z,99610.73
2023-04-15T11:26:11.849Z,99608.99
2023-04-15T11:28:41.586Z,99615.92
2023-04-15T11:31:20.129Z,99616.89
2023-04-15T11:33:59.169Z,99617.08
2023-04-15T11:36:29.568Z,99620.14
2023-04-15T11:38:59.434Z,99619.23
2023-04-15T11:41:27.226Z,99618.95
2023-04-15T11:43:54.701Z,99622.02
2023-04-15T11:46:30.850Z,99618.42
2023-04-15T11:48:58.424Z,99619.57
2023-04-15T11:51:25.997Z,99621.96
2023-04-15T11:53:54.726Z,99622.57
2023-04-15T11:56:26.055Z,99623.70
2023-04-15T11:58:56.952Z,99622.89
2023-04-15T12:01:39.669Z,99625.52
2023-04-15T12:04:22.558Z,99623.77
2023-04-15T12:06:52.875Z,99627.70
2023-04-15T12:09:21.862Z,99630.38
2023-04-15T12:11:57.232Z,99626.56
2023-04-15T12:14:30.141Z,99629.98
2023-04-15T12:17:00.210Z,99634.13
2023-04-15T12:19:39.127Z,99633.81
2023-04-15T12:22:11.226Z,99634.08
2023-04-15T12:24:40.643Z,99630.66
2023-04-15T12:27:11.346Z,99633.59
2023-04-15T12:29:41.694Z,99632.52
2023-04-15T12:32:12.078Z,99635.39
2023-04-15T12:34:41.862Z,99637.13
2023-04-15T12:37:12.062Z,99637.10
2023-04-15T12:39:43.272Z,99642.23
2023-04-15T12:42:11.604Z,99639.92
2023-04-15T12:44:40.226Z,99641.34
2023-04-15T12:47:09.554Z,99647.67
2023-04-15T12:49:37.704Z,99644.05
2023-04-15T12:52:05.890Z,99648.16
2023-04-15T12:54:33.627Z,99647.00
2023-04-15T12:57:01.268Z,99644.71
2023-04-15T12:59:29.008Z,99646.41
2023-04-15T13:01:57.007Z,99645.60
2023-04-15T13:04:24.908Z,99648.30
2023-04-15T13:06:52.479Z,99649.26
2023-04-15T13:09:20.128Z,99646.01
2023-04-15T13:11:48.902Z,99647.11
2023-04-15T13:14:16.903Z,99654.79
2023-04-15T13:16:44.479Z,99651.26
2023-04-15T13:19:12.187Z,99653.64
2023-04-15T13:21:39.856Z,99656.80
2023-04-15T13:24:08.005Z,99656.60
2023-04-15T13:26:36.304Z,99657.36
2023-04-15T13:29:03.968Z,99661.69
2023-04-15T13:31:31.527Z,99664.63
2023-04-15T13:33:59.108Z,99663.08
2023-04-15T13:36:27.258Z,99662.66
2023-04-15T13:38:55.533Z,99663.82
2023-04-15T13:41:23.041Z,99666.30
2023-04-15T13:43:51.165Z,99665.46
2023-04-15T13:46:19.050Z,99666.56
2023-04-15T13:48:48.933Z,99667.73
2023-04-15T13:51:16.526Z,99668.20
2023-04-15T13:53:44.068Z,99670.21
2023-04-15T13:56:13.031Z,99674.46
2023-04-15T13:58:41.392Z,99675.76
2023-04-15T14:01:09.287Z,99674.03
2023-04-15T14:03:37.484Z,99677.67
2023-04-15T14:06:08.503Z,99678.73
2023-04-15T14:08:36.143Z,99684.27
2023-04-15T14:11:03.727Z,99683.29
2023-04-15T14:13:31.274Z,99683.26
2023-04-15T14:15:58.998Z,99689.33
2023-04-15T14:18:28.544Z,99687.91
2023-04-15T14:20:56.864Z,99691.20
2023-04-15T14:23:25.532Z,99697.20
2023-04-15T14:25:54.410Z,99698.31
2023-04-15T14:28:21.856Z,99696.24
2023-04-15T14:30:50.014Z,99698.98
2023-04-15T14:33:17.841Z,99696.61
2023-04-15T14:35:46.180Z,99697.51
2023-04-15T14:38:13.677Z,99698.51
2023-04-15T14:40:41.459Z,99705.23
2023-04-15T14:43:09.041Z,99704.11
2023-04-15T14:45:39.505Z,99705.09
2023-04-15T14:48:12.483Z,99705.42
2023-04-15T14:50:40.557Z,99707.84
2023-04-15T14:53:09.450Z,99707.16
2023-04-15T14:55:36.991Z,99707.98
2023-04-15T14:58:07.522Z,99713.42
2023-04-15T15:00:39.179Z,99711.32
2023-04-15T15:03:12.929Z,99709.16
2023-04-15T15:05:46.448Z,99716.45
2023-04-15T15:08:14.336Z,99714.70
2023-04-15T15:10:48.511Z,99717.77
2023-04-15T15:13:18.861Z,99720.66
2023-04-15T15:15:46.603Z,99722.47
2023-04-15T15:18:14.279Z,99726.17
2023-04-15T15:20:42.009Z,99734.17
2023-04-15T15:23:09.602Z,99731.34
2023-04-15T15:25:37.250Z,99736.22
2023-04-15T15:28:05.561Z,99734.92
2023-04-15T15:30:33.088Z,99737.78
2023-04-15T15:33:00.662Z,99734.29
2023-04-15T15:35:28.215Z,99738.45
2023-04-15T15:37:55.949Z,99741.50
2023-04-15T15:40:23.677Z,99744.70
2023-04-15T15:42:51.313Z,99749.18
2023-04-15T15:45:18.975Z,99752.40
2023-04-15T15:47:46.605Z,99752.50
2023-04-15T15:50:14.561Z,99759.80
2023-04-15T15:52:42.179Z,99762.25
2023-04-15T15:55:10.023Z,99763.73
2023-04-15T15:57:37.550Z,99767.17
2023-04-15T16:00:12.063Z,99766.49
2023-04-15T16:03:05.101Z,99772.66
2023-04-15T16:05:28.099Z,99775.40
2023-04-15T16:07:55.637Z,99778.48
2023-04-15T16:10:23.324Z,99777.00
2023-04-15T16:12:53.470Z,99778.09
2023-04-15T16:15:23.879Z,99785.50
2023-04-15T16:17:51.663Z,99789.08
2023-04-15T16:20:19.344Z,99793.03
2023-04-15T16:22:46.941Z,99793.64
2023-04-15T16:25:14.457Z,99794.58
2023-04-15T16:27:54.647Z,99800.08
2023-04-15T16:30:27.160Z,99802.45
2023-04-15T16:32:55.008Z,99802.71
2023-04-15T16:35:23.890Z,99809.58
2023-04-15T16:37:51.437Z,99812.80
2023-04-15T16:40:20.286Z,99817.92
2023-04-15T16:42:47.991Z,99816.50
2023-04-15T16:45:15.745Z,99820.48
2023-04-15T16:47:43.300Z,99825.69
2023-04-15T16:50:11.026Z,99829.78
2023-04-15T16:52:38.540Z,99832.58
2023-04-15T16:55:06.825Z,99837.98
2023-04-15T16:57:50.818Z,99839.73
2023-04-15T17:00:22.675Z,99840.08
2023-04-15T17:02:50.574Z,99844.98
2023-04-15T17:05:18.586Z,99847.14
2023-04-15T17:07:46.343Z,99849.83
2023-04-15T17:10:13.900Z,99853.68
2023-04-15T17:12:41.688Z,99857.09
2023-04-15T17:15:09.825Z,99861.02
2023-04-15T17:17:37.424Z,99864.38
2023-04-15T17:20:06.725Z,99864.49
2023-04-15T17:22:34.631Z,99862.45
2023-04-15T17:25:03.134Z,99862.34
2023-04-15T17:27:31.220Z,99862.91
2023-04-15T17:29:58.818Z,99868.55
2023-04-15T17:32:31.782Z,99870.38
2023-04-15T17:35:06.424Z,99874.27
2023-04-15T17:37:35.833Z,99879.42
2023-04-15T17:40:05.296Z,99887.45
2023-04-15T17:42:34.353Z,99892.59
2023-04-15T17:45:02.337Z,99899.27
2023-04-15T17:47:30.222Z,99901.05
2023-04-15T17:49:58.044Z,99894.02
2023-04-15T17:52:25.962Z,99900.36
2023-04-15T17:54:53.692Z,99908.26
2023-04-15T17:57:21.397Z,99912.96
2023-04-15T17:59:49.444Z,99908.33
2023-04-15T18:02:17.757Z,99916.35
2023-04-15T18:04:45.940Z,99922.79
2023-04-15T18:07:15.699Z,99927.13
2023-04-15T18:09:44.341Z,99926.62
2023-04-15T18:12:12.189Z,99930.42
2023-04-15T18:14:39.968Z,99933.95
2023-04-15T18:17:08.064Z,99940.27
2023-04-15T18:19:36.187Z,99941.27
2023-04-15T18:22:03.942Z,99944.27
2023-04-15T18:24:32.116Z,99945.33
2023-04-15T18:27:00.388Z,99946.38
2023-04-15T18:29:28.534Z,99948.14
2023-04-15T18:31:58.935Z,99949.36
2023-04-15T18:34:27.382Z,99956.15
2023-04-15T18:36:58.821Z,99957.38
2023-04-15T18:39:27.848Z,99957.94
2023-04-15T18:41:57.337Z,99956.23
2023-04-15T18:44:25.750Z,99964.44
2023-04-15T18:46:53.456Z,99959.16
2023-04-15T18:49:21.299Z,99961.64
2023-04-15T18:51:49.301Z,99964.64
2023-04-15T18:54:16.962Z,99967.14
2023-04-15T18:56:45.064Z,99965.31
2023-04-15T18:59:29.303Z,99974.55
2023-04-15T19:02:00.231Z,99977.50
2023-04-15T19:04:31.153Z,99979.06
2023-04-15T19:06:59.236Z,99976.81
2023-04-15T19:09:28.882Z,99973.39
2023-04-15T19:11:56.973Z,99978.63
2023-04-15T19:14:24.886Z,99984.22
2023-04-15T19:16:54.110Z,99985.13
2023-04-15T19:19:21.956Z,99987.40
2023-04-15T19:21:50.538Z,99987.46
2023-04-15T19:24:19.622Z,99987.49
2023-04-15T19:26:50.175Z,99991.52
2023-04-15T19:29:18.504Z,99995.91
2023-04-15T19:31:46.253Z,99993.85
2023-04-15T19:34:14.073Z,99990.46
2023-04-15T19:36:43.008Z,99995.56
2023-04-15T19:39:11.340Z,99998.23
2023-04-15T19:41:39.361Z,99992.85
2023-04-15T19:44:06.972Z,99993.89
2023-04-15T19:46:35.472Z,100000.36
2023-04-15T19:49:03.497Z,99997.45
2023-04-15T19:51:31.745Z,99995.92
2023-04-15T19:53:59.633Z,100000.50
2023-04-15T19:56:27.466Z,99995.84
2023-04-15T19:58:55.238Z,99996.87
2023-04-15T20:01:23.295Z,99997.73
2023-04-15T20:03:54.976Z,100000.83
2023-04-15T20:06:23.039Z,99999.61
2023-04-15T20:08:51.700Z,100000.81
2023-04-15T20:11:19.382Z,99998.18
2023-04-15T20:13:47.032Z,99999.78
2023-04-15T20:16:14.875Z,100000.84
2023-04-15T20:18:42.608Z,100001.02
2023-04-15T20:21:10.376Z,100004.10
2023-04-15T20:23:38.767Z,100006.35
2023-04-15T20:26:07.368Z,100010.01
2023-04-15T20:28:34.967Z,100012.11
2023-04-15T20:31:03.319Z,100015.57
2023-04-15T20:33:31.413Z,100017.46
2023-04-15T20:35:59.676Z,100016.80
2023-04-15T20:38:27.321Z,100016.13
2023-04-15T20:40:55.019Z,100012.48
2023-04-15T20:43:23.021Z,100019.92
2023-04-15T20:45:51.551Z,100020.46
2023-04-15T20:48:19.239Z,100020.84
2023-04-15T20:50:47.090Z,100021.71
2023-04-15T20:53:15.484Z,100024.14
2023-04-15T20:55:45.025Z,100028.65
2023-04-15T20:58:13.048Z,100028.47
2023-04-15T21:00:40.917Z,100036.57
2023-04-15T21:03:08.851Z,100038.98
2023-04-15T21:05:36.670Z,100044.52
2023-04-15T21:08:04.437Z,100044.34
2023-04-15T21:10:35.491Z,100050.23
2023-04-15T21:13:03.199Z,100046.96
2023-04-15T21:15:30.930Z,100050.27
2023-04-15T21:17:58.827Z,100049.77
2023-04-15T21:20:27.060Z,100048.55
2023-04-15T21:22:54.784Z,100054.84
2023-04-15T21:25:22.755Z,100051.55
2023-04-15T21:27:50.655Z,100052.95
2023-04-15T21:30:18.307Z,100054.86
2023-04-15T21:32:46.013Z,100055.90
2023-04-15T21:35:13.645Z,100057.80
2023-04-15T21:37:41.193Z,100063.69
2023-04-15T21:40:09.227Z,100063.17
2023-04-15T21:42:36.949Z,100066.30
2023-04-15T21:45:04.824Z,100064.91
2023-04-15T21:47:32.446Z,100065.27
2023-04-15T21:50:20.192Z,100064.60
2023-04-15T21:52:47.787Z,100072.75
2023-04-15T21:55:15.530Z,100071.05
2023-04-15T21:57:43.324Z,100070.88
2023-04-15T22:00:11.922Z,100074.48
2023-04-15T22:02:42.576Z,100074.64
2023-04-15T22:05:10.288Z,100081.40
2023-04-15T22:07:37.948Z,100081.24
2023-04-15T22:10:06.363Z,100086.27
2023-04-15T22:12:34.018Z,100090.43
2023-04-15T22:15:02.850Z,100089.21
2023-04-15T22:17:30.867Z,100090.59
2023-04-15T22:19:58.523Z,100094.23
2023-04-15T22:22:26.809Z,100094.20
2023-04-15T22:25:12.449Z,100098.15
2023-04-15T22:27:40.155Z,100097.29
2023-04-15T22:30:08.585Z,100101.27
2023-04-15T22:32:36.595Z,100099.16
2023-04-15T22:35:06.468Z,100097.40
2023-04-15T22:37:34.137Z,100102.58
2023-04-15T22:40:02.944Z,100102.77
2023-04-15T22:42:30.727Z,100106.07
2023-04-15T22:44:58.298Z,100104.56
2023-04-15T22:47:25.899Z,100108.44
2023-04-15T22:49:53.784Z,100107.41
2023-04-15T22:52:29.854Z,100105.51
2023-04-15T22:54:58.556Z,100109.17
2023-04-15T22:57:27.900Z,100107.47
2023-04-15T22:59:55.951Z,100110.42
2023-04-15T23:02:23.867Z,100109.52
2023-04-15T23:04:51.957Z,100107.41
2023-04-15T23:07:19.615Z,100103.60
2023-04-15T23:09:47.476Z,100103.79
2023-04-15T23:12:14.983Z,100103.95
2023-04-15T23:14:42.504Z,100104.31
2023-04-15T23:17:10.336Z,100106.73
2023-04-15T23:19:38.016Z,100104.64
2023-04-15T23:22:07.453Z,100106.20
2023-04-15T23:24:34.920Z,100106.38
2023-04-15T23:27:02.668Z,100107.26
2023-04-15T23:29:30.338Z,100111.08
2023-04-15T23:31:58.229Z,100110.21
2023-04-15T23:34:26.311Z,100110.90
2023-04-15T23:36:53.894Z,100107.98
2023-04-15T23:39:21.608Z,100111.30
2023-04-15T23:41:49.357Z,100109.23
2023-04-15T23:44:17.113Z,100106.33
2023-04-15T23:46:44.614Z,100107.91
2023-04-15T23:49:12.591Z,100104.29
2023-04-15T23:51:40.811Z,100105.06
2023-04-15T23:54:08.770Z,100103.55
2023-04-15T23:56:36.678Z,100103.96
2023-04-15T23:59:04.297Z,100107.12
